Time;durP1;ratioP1;P1;durP2;ratioP2;P2;SDS_P1;SDS_P2;PMS_P1;PMS_P2;Temp;Humidity;BMP_temperature;BMP_pressure;BME280_temperature;BME280_humidity;BME280_pressure;Samples;Min_cycle;Max_cycle;Signal;HPM_P1;HPM_P2
2022/07/17 00:00:54;;;;;;;2.77;0.77;;;19.90;48.20;;;;;;20498476;28;20043;-71
2022/07/17 00:10:54;;;;;;;4.22;0.80;;;19.80;48.10;;;;;;20505326;28;20292;-71
2022/07/17 00:20:55;;;;;;;3.08;0.80;;;19.80;48.10;;;;;;20504314;28;20058;-72
2022/07/17 00:30:55;;;;;;;3.13;0.80;;;19.70;48.00;;;;;;20483471;28;20035;-73
2022/07/17 00:40:57;;;;;;;2.60;0.88;;;19.60;48.00;;;;;;20503476;28;20049;-72
2022/07/17 01:01:15;;;;;;;1.65;0.77;;;19.50;47.80;;;;;;20491209;28;20047;-71
2022/07/17 01:11:15;;;;;;;2.10;1.03;;;19.40;47.70;;;;;;20489783;28;20122;-71
2022/07/17 01:21:16;;;;;;;2.08;1.40;;;19.40;47.70;;;;;;20494360;28;20787;-71
2022/07/17 01:31:16;;;;;;;2.35;1.63;;;19.30;47.60;;;;;;20507752;28;20031;-71
2022/07/17 01:41:17;;;;;;;4.35;1.05;;;19.30;47.60;;;;;;20483779;28;20061;-71
2022/07/17 01:51:18;;;;;;;1.10;0.80;;;19.30;47.50;;;;;;20477308;28;20037;-72
2022/07/17 02:01:18;;;;;;;1.27;0.88;;;19.20;47.50;;;;;;20498090;28;20130;-72
2022/07/17 02:11:19;;;;;;;1.88;0.75;;;19.10;47.40;;;;;;20499919;28;20038;-71
2022/07/17 02:21:19;;;;;;;3.92;1.00;;;19.10;47.40;;;;;;20532694;28;20038;-71
2022/07/17 02:31:20;;;;;;;2.28;0.68;;;19.00;47.40;;;;;;20483067;28;20611;-71
2022/07/17 02:41:21;;;;;;;1.20;0.70;;;18.90;47.40;;;;;;20513324;28;20039;-73
2022/07/17 02:51:21;;;;;;;1.77;0.80;;;18.90;47.40;;;;;;20499473;28;20137;-73
2022/07/17 03:01:22;;;;;;;3.67;0.60;;;18.90;47.30;;;;;;20472798;28;20039;-71
2022/07/17 03:11:22;;;;;;;1.55;0.70;;;18.80;47.20;;;;;;20514566;28;20243;-71
2022/07/17 03:21:23;;;;;;;1.90;0.70;;;18.80;47.20;;;;;;20535197;28;20043;-71
2022/07/17 03:31:23;;;;;;;3.20;1.08;;;18.70;47.20;;;;;;20487628;28;20038;-72
2022/07/17 03:41:24;;;;;;;2.80;1.00;;;18.60;47.30;;;;;;20477967;28;20035;-71
2022/07/17 03:51:25;;;;;;;2.15;0.75;;;18.60;47.40;;;;;;20503669;28;20089;-72
2022/07/17 04:01:25;;;;;;;2.63;0.98;;;18.60;47.50;;;;;;20479816;28;20047;-72
2022/07/17 04:11:26;;;;;;;0.65;0.43;;;18.50;47.60;;;;;;20538843;28;20034;-71
2022/07/17 04:21:26;;;;;;;1.73;0.80;;;18.50;47.70;;;;;;20521624;28;20063;-71
2022/07/17 04:31:27;;;;;;;2.60;0.70;;;18.50;47.90;;;;;;20488833;28;20114;-71
2022/07/17 04:41:28;;;;;;;3.03;0.90;;;18.40;48.10;;;;;;20519968;28;20046;-71
2022/07/17 04:51:28;;;;;;;3.38;1.20;;;18.40;48.50;;;;;;20505151;28;20059;-70
2022/07/17 05:01:29;;;;;;;2.03;0.75;;;18.40;49.10;;;;;;20480992;28;20130;-72
2022/07/17 05:11:30;;;;;;;4.13;1.10;;;18.40;49.60;;;;;;20519531;28;20106;-72
2022/07/17 05:21:31;;;;;;;5.82;2.00;;;18.40;50.10;;;;;;20509391;28;20334;-70
2022/07/17 05:31:31;;;;;;;3.90;0.97;;;18.40;50.50;;;;;;20493118;28;20042;-73
2022/07/17 05:41:32;;;;;;;2.23;0.90;;;18.40;51.00;;;;;;20509322;28;20391;-72
2022/07/17 05:51:32;;;;;;;4.30;1.47;;;18.40;51.30;;;;;;20500545;28;20409;-75
2022/07/17 06:01:33;;;;;;;4.03;1.25;;;18.50;51.80;;;;;;20500639;28;20130;-71
2022/07/17 06:11:34;;;;;;;4.10;0.82;;;18.50;52.20;;;;;;20516863;28;20035;-71
2022/07/17 06:21:34;;;;;;;3.27;1.03;;;18.50;52.60;;;;;;20510706;28;20039;-73
2022/07/17 06:31:35;;;;;;;4.70;0.90;;;18.50;52.90;;;;;;20545225;28;20782;-71
2022/07/17 06:41:36;;;;;;;1.98;0.65;;;18.50;53.20;;;;;;20528605;28;20508;-72
2022/07/17 06:51:38;;;;;;;3.13;1.00;;;18.50;53.60;;;;;;20544484;28;20098;-73
2022/07/17 07:01:39;;;;;;;1.57;0.80;;;18.60;53.70;;;;;;20504251;28;20421;-72
2022/07/17 07:11:39;;;;;;;2.58;0.77;;;18.60;53.60;;;;;;20506708;28;20390;-72
2022/07/17 07:21:40;;;;;;;4.30;1.02;;;18.60;53.80;;;;;;20493196;28;20370;-70
2022/07/17 07:31:41;;;;;;;3.92;0.90;;;18.70;53.80;;;;;;20537572;28;20375;-78
2022/07/17 07:41:43;;;;;;;4.90;0.82;;;18.80;54.00;;;;;;20522365;28;20046;-77
2022/07/17 07:51:43;;;;;;;1.35;0.60;;;18.90;54.10;;;;;;20516353;28;20377;-78
2022/07/17 08:01:44;;;;;;;4.13;0.77;;;19.00;54.10;;;;;;20483632;28;20046;-78
2022/07/17 08:11:44;;;;;;;5.57;1.00;;;19.00;54.30;;;;;;20489889;29;20031;-75
2022/07/17 08:21:45;;;;;;;7.18;1.65;;;19.00;54.50;;;;;;20487943;29;20133;-74
2022/07/17 08:31:45;;;;;;;3.80;0.98;;;19.10;54.70;;;;;;20512456;28;20081;-76
2022/07/17 08:41:46;;;;;;;4.10;1.13;;;19.10;54.50;;;;;;20567913;28;20050;-78
2022/07/17 08:51:47;;;;;;;5.57;0.98;;;19.10;54.50;;;;;;20507826;28;20473;-76
2022/07/17 09:01:48;;;;;;;4.65;0.80;;;19.20;54.60;;;;;;20513617;28;20113;-75
2022/07/17 09:11:50;;;;;;;2.90;0.70;;;19.20;54.70;;;;;;20510275;28;20042;-74
2022/07/17 09:21:50;;;;;;;5.70;1.60;;;19.30;54.70;;;;;;20507572;28;20102;-83
2022/07/17 09:31:51;;;;;;;3.40;0.70;;;19.30;54.70;;;;;;20540262;28;20039;-75
2022/07/17 09:41:52;;;;;;;3.00;0.95;;;19.30;55.00;;;;;;20522130;28;20130;-81
2022/07/17 09:51:53;;;;;;;3.35;1.17;;;19.40;55.10;;;;;;20499016;28;20118;-82
2022/07/17 10:01:53;;;;;;;2.47;0.60;;;19.40;55.70;;;;;;20518065;28;20486;-80
2022/07/17 10:11:54;;;;;;;2.88;0.90;;;19.40;55.10;;;;;;20500930;28;20034;-79
2022/07/17 10:21:59;;;;;;;8.43;0.98;;;19.40;55.20;;;;;;20534534;28;20182;-83
2022/07/17 10:32:02;;;;;;;5.27;1.93;;;19.50;55.30;;;;;;20538816;28;20099;-76
2022/07/17 10:42:03;;;;;;;2.55;1.50;;;19.50;55.40;;;;;;20530640;28;20048;-76
2022/07/17 10:52:03;;;;;;;3.22;1.70;;;19.50;55.50;;;;;;20495408;28;20438;-73
2022/07/17 11:02:04;;;;;;;3.90;1.20;;;19.50;55.40;;;;;;20509337;28;20127;-74
2022/07/17 11:12:05;;;;;;;2.30;0.73;;;19.50;55.40;;;;;;20503024;28;20026;-78
2022/07/17 11:22:07;;;;;;;1.52;0.70;;;19.50;55.30;;;;;;20501297;28;20050;-73
2022/07/17 11:32:08;;;;;;;1.83;0.50;;;19.60;55.40;;;;;;20518761;28;20035;-76
2022/07/17 11:42:10;;;;;;;4.53;0.90;;;19.60;55.40;;;;;;20497637;28;20494;-78
2022/07/17 11:52:18;;;;;;;2.85;0.80;;;19.70;56.10;;;;;;20523133;28;20589;-79
2022/07/17 12:02:23;;;;;;;1.98;0.85;;;19.70;56.50;;;;;;20487512;28;20046;-78
2022/07/17 12:12:26;;;;;;;3.13;0.80;;;19.70;56.30;;;;;;20520305;28;20055;-75
2022/07/17 12:22:28;;;;;;;9.52;0.90;;;19.70;56.00;;;;;;20549343;28;20050;-81
2022/07/17 12:32:29;;;;;;;92.45;9.57;;;19.80;55.90;;;;;;20538591;28;20027;-77
2022/07/17 12:42:29;;;;;;;41.45;4.30;;;19.80;55.70;;;;;;20539526;28;20131;-76
2022/07/17 12:52:30;;;;;;;6.97;1.15;;;19.90;55.70;;;;;;20483652;28;20039;-76
2022/07/17 13:02:31;;;;;;;2.15;0.82;;;20.00;56.20;;;;;;20475841;28;20039;-77
2022/07/17 13:12:32;;;;;;;0.93;0.57;;;20.00;56.20;;;;;;20520063;28;20505;-77
2022/07/17 13:22:32;;;;;;;2.72;0.60;;;20.10;56.00;;;;;;20501229;28;20040;-77
2022/07/17 13:32:33;;;;;;;1.15;0.57;;;20.20;55.80;;;;;;20518290;28;20042;-77
2022/07/17 13:42:33;;;;;;;3.10;1.38;;;20.20;55.50;;;;;;20487190;28;20198;-77
2022/07/17 13:52:36;;;;;;;2.63;0.88;;;20.30;54.90;;;;;;20464879;28;20043;-78
2022/07/17 14:02:38;;;;;;;2.47;0.70;;;20.40;54.40;;;;;;20492528;28;20049;-79
2022/07/17 14:12:39;;;;;;;3.33;0.70;;;20.50;53.80;;;;;;20508946;28;20484;-75
2022/07/17 14:22:40;;;;;;;4.10;0.60;;;20.60;53.00;;;;;;20536673;28;20051;-73
2022/07/17 14:32:41;;;;;;;4.50;1.02;;;20.70;52.90;;;;;;20549437;28;20038;-75
2022/07/17 14:42:42;;;;;;;5.75;0.73;;;20.80;52.70;;;;;;20528963;28;20520;-73
2022/07/17 14:52:43;;;;;;;9.48;1.23;;;20.90;52.50;;;;;;20504260;28;20066;-75
2022/07/17 15:02:43;;;;;;;5.80;1.05;;;21.00;52.20;;;;;;20519724;28;20130;-74
2022/07/17 15:12:45;;;;;;;6.55;0.93;;;21.10;52.10;;;;;;20491908;28;20035;-75
2022/07/17 15:22:54;;;;;;;3.28;0.88;;;21.20;52.10;;;;;;20480013;29;20386;-80
2022/07/17 15:32:54;;;;;;;5.50;0.85;;;21.30;52.00;;;;;;20536727;28;20397;-78
2022/07/17 15:42:55;;;;;;;1.70;0.80;;;21.30;51.70;;;;;;20491552;29;20039;-75
2022/07/17 15:52:56;;;;;;;5.97;0.85;;;21.40;51.60;;;;;;20515153;28;20054;-79
2022/07/17 16:02:56;;;;;;;3.67;0.75;;;21.50;51.40;;;;;;20484079;28;20050;-76
2022/07/17 16:12:57;;;;;;;4.88;0.68;;;21.60;51.20;;;;;;20453902;28;20034;-75
2022/07/17 16:22:57;;;;;;;1.45;0.70;;;21.70;51.20;;;;;;20539934;28;20134;-77
2022/07/17 16:32:58;;;;;;;5.18;0.75;;;21.70;51.10;;;;;;20499172;28;20089;-76
2022/07/17 16:42:58;;;;;;;5.22;0.85;;;21.70;51.20;;;;;;20506803;28;20038;-75
2022/07/17 16:52:59;;;;;;;4.93;1.00;;;21.70;51.30;;;;;;20449136;28;20114;-76
2022/07/17 17:03:02;;;;;;;1.80;0.80;;;21.60;51.30;;;;;;20481180;28;20487;-75
2022/07/17 17:13:04;;;;;;;2.75;0.60;;;21.50;51.40;;;;;;20480221;28;20459;-77
2022/07/17 17:23:05;;;;;;;3.20;0.80;;;21.50;51.50;;;;;;20457239;28;20406;-75
2022/07/17 17:33:08;;;;;;;2.72;0.85;;;21.40;51.50;;;;;;20497626;28;20090;-76
2022/07/17 17:43:08;;;;;;;1.42;0.68;;;21.40;51.50;;;;;;20462629;28;20042;-75
2022/07/17 17:53:09;;;;;;;1.33;0.70;;;21.40;51.60;;;;;;20460794;28;20031;-74
2022/07/17 18:03:09;;;;;;;1.02;0.65;;;21.30;51.70;;;;;;20478676;28;20039;-74
2022/07/17 18:13:10;;;;;;;3.33;0.80;;;21.30;51.80;;;;;;20476653;28;20049;-74
2022/07/17 18:23:11;;;;;;;0.95;0.50;;;21.30;51.80;;;;;;20460023;28;20110;-74
2022/07/17 18:33:11;;;;;;;2.00;0.80;;;21.30;52.00;;;;;;20490690;28;20118;-73
2022/07/17 18:43:12;;;;;;;2.50;0.82;;;21.30;52.10;;;;;;20467809;28;20298;-75
2022/07/17 18:53:13;;;;;;;3.75;0.80;;;21.30;52.20;;;;;;20497715;28;20055;-75
2022/07/17 19:03:13;;;;;;;1.17;0.63;;;21.30;52.30;;;;;;20506515;28;20046;-74
2022/07/17 19:13:14;;;;;;;1.50;0.70;;;21.20;52.40;;;;;;20484337;28;20037;-74
2022/07/17 19:23:14;;;;;;;1.15;0.57;;;21.20;53.20;;;;;;20541402;28;20443;-74
2022/07/17 19:33:15;;;;;;;2.28;0.60;;;21.20;52.70;;;;;;20533854;28;20035;-77
2022/07/17 19:43:16;;;;;;;1.45;0.73;;;21.00;53.00;;;;;;20526337;28;20473;-76
2022/07/17 19:53:16;;;;;;;2.17;0.98;;;21.00;53.10;;;;;;20518015;28;20129;-77
2022/07/17 20:03:18;;;;;;;2.95;1.10;;;21.00;53.30;;;;;;20518748;28;20085;-75
2022/07/17 20:13:18;;;;;;;10.77;1.67;;;20.90;53.60;;;;;;20526276;28;20474;-74
2022/07/17 20:23:20;;;;;;;3.22;1.25;;;20.80;54.00;;;;;;20512697;28;20130;-76
2022/07/17 20:33:20;;;;;;;1.88;0.98;;;20.80;54.10;;;;;;20507991;28;20069;-74
2022/07/17 20:43:21;;;;;;;3.67;1.03;;;20.70;54.30;;;;;;20546027;28;20099;-75
2022/07/17 20:53:24;;;;;;;4.55;1.70;;;20.70;54.60;;;;;;20523298;28;20393;-76
2022/07/17 21:03:25;;;;;;;4.68;1.55;;;20.60;54.80;;;;;;20507374;28;20043;-75
2022/07/17 21:13:27;;;;;;;2.25;1.38;;;20.60;55.00;;;;;;20479308;28;20124;-75
2022/07/17 21:23:27;;;;;;;3.33;1.70;;;20.50;55.10;;;;;;20502588;28;20034;-75
2022/07/17 21:33:29;;;;;;;4.55;1.77;;;20.50;55.40;;;;;;20529953;28;20050;-74
2022/07/17 21:43:31;;;;;;;4.82;1.58;;;20.40;55.60;;;;;;20558815;28;20130;-75
2022/07/17 21:53:31;;;;;;;4.00;1.48;;;20.40;55.80;;;;;;20524001;28;20038;-75
2022/07/17 22:03:32;;;;;;;3.25;1.65;;;20.40;56.00;;;;;;20507395;28;20050;-75
2022/07/17 22:13:33;;;;;;;5.22;1.77;;;20.40;55.90;;;;;;20535209;28;20097;-74
2022/07/17 22:23:35;;;;;;;4.63;1.20;;;20.30;55.90;;;;;;20500520;28;20043;-75
2022/07/17 22:33:36;;;;;;;4.15;1.60;;;20.30;56.00;;;;;;20553822;28;20451;-75
2022/07/17 22:43:36;;;;;;;2.03;0.93;;;20.20;55.80;;;;;;20528282;28;20133;-76
2022/07/17 22:53:39;;;;;;;3.00;1.33;;;20.20;55.60;;;;;;20527408;28;20053;-75
2022/07/17 23:03:40;;;;;;;5.90;1.38;;;20.20;55.50;;;;;;20515104;28;20153;-75
2022/07/17 23:13:41;;;;;;;1.38;0.82;;;20.10;55.40;;;;;;20528736;28;20500;-74
2022/07/17 23:23:41;;;;;;;2.67;1.33;;;20.00;55.20;;;;;;20526679;28;20043;-76
2022/07/17 23:33:42;;;;;;;3.33;1.38;;;20.00;55.10;;;;;;20525119;28;20054;-75
2022/07/17 23:43:42;;;;;;;5.60;1.73;;;20.00;55.20;;;;;;20518509;28;20449;-75
2022/07/17 23:53:43;;;;;;;4.82;2.40;;;19.90;55.20;;;;;;20532440;28;20061;-75
